Flight Track Log - Related Links

Times and Time Zones

All times are in EDT time to prevent confusion due to time zone crossing. See the XOJ552 flight status page for this flight to view local times or setup timezone preferences in your user account.

Time Position Orientation Groundspeed Altitude Reporting Facility
EDT Latitude Longitude Course Direction KTS MPH feet Rate Location/Type
Thu 12:56:11 PM 34.1500 -118.4500 77° East 187 215 2,900  Level Southern California TRACON
Thu 12:57:49 PM 34.2258 -118.4025 27° Northeast 222 255 8,200 3,188 Climbing Los Angeles Center
Thu 12:58:51 PM 34.2975 -118.3875 10° North 257 296 11,400 2,806 Climbing Los Angeles Center
Thu 12:59:53 PM 34.3828 -118.3611 14° North 311 358 14,000 1,306 Climbing Los Angeles Center
Thu 01:00:55 PM 34.4694 -118.3203 21° North 330 380 14,100 1,597 Climbing Los Angeles Center
Thu 01:01:00 PM 34.6287 -117.9840 77° East  Level FlightAware Approximate
Thu 01:01:57 PM 34.5278 -118.2306 52° Northeast 337 388 17,300  Level Los Angeles Center
Thu 01:02:59 PM 34.5853 -118.1386 53° Northeast 338 389 20,800 2,129 Climbing Los Angeles Center
Thu 01:04:01 PM 34.6358 -118.0147 64° Northeast 355 409 21,700 1,344 Climbing Los Angeles Center
Thu 01:05:04 PM 34.6492 -117.8972 82° East 355 409 23,600 2,160 Climbing Los Angeles Center
Thu 01:06:06 PM 34.6622 -117.7772 82° East 359 413 26,200 2,419 Climbing Los Angeles Center
Thu 01:07:08 PM 34.6756 -117.6533 83° East 368 423 28,600 2,032 Climbing Los Angeles Center
Thu 01:08:10 PM 34.6886 -117.5247 83° East 380 437 30,400 1,935 Climbing Los Angeles Center
Thu 01:09:12 PM 34.7061 -117.3642 82° East 401 461 32,600 1,887 Climbing Los Angeles Center
Thu 01:10:14 PM 34.7203 -117.2286 83° East 408 470 34,300 1,355 Climbing Los Angeles Center
Thu 01:11:16 PM 34.7347 -117.0900 83° East 416 479 35,400 1,065 Climbing Los Angeles Center
Thu 01:12:18 PM 34.7494 -116.9444 83° East 434 499 36,500 1,161 Climbing Los Angeles Center
Thu 01:13:20 PM 34.7642 -116.7972 83° East 443 510 37,800 1,306 Climbing Los Angeles Center
Thu 01:14:22 PM 34.7819 -116.6214 83° East 440 506 39,200 1,056 Climbing Los Angeles Center
Thu 01:15:25 PM 34.7950 -116.4744 84° East 440 506 40,000 768 Climbing Los Angeles Center
Thu 01:16:27 PM 34.7956 -116.3253 90° East 443 510 40,800 484 Climbing Los Angeles Center
Thu 01:17:29 PM 34.7922 -116.1739 91° East 448 516 41,000 88 Climbing Los Angeles Center
Thu 01:18:43 PM 34.7919 -115.9850 90° East 463 533 41,000  Level Los Angeles Center
Thu 01:19:45 PM 34.7900 -115.7919 91° East 474 545 41,000  Level Los Angeles Center
Thu 01:20:48 PM 34.7869 -115.6322 91° East 474 545 41,000  Level Los Angeles Center
Thu 01:22:44 PM 34.7825 -115.3364 91° East 475 547 41,000  Level Albuquerque Center
Thu 01:23:47 PM 34.7806 -115.1708 91° East 482 555 41,000  Level Albuquerque Center
Thu 01:24:49 PM 34.7783 -114.9717 91° East 489 563 41,000  Level Albuquerque Center
Thu 01:25:51 PM 34.7750 -114.8114 91° East 488 562 41,000  Level Albuquerque Center
Thu 01:26:53 PM 34.7719 -114.6506 91° East 483 556 41,000  Level Albuquerque Center
Thu 01:27:55 PM 34.7686 -114.4883 91° East 481 554 41,000  Level Albuquerque Center
Thu 01:28:57 PM 34.7633 -114.3281 92° East 480 552 41,000  Level Albuquerque Center
Thu 01:29:59 PM 34.7592 -114.1325 91° East 480 552 41,000  Level Albuquerque Center
Thu 01:31:08 PM 34.7536 -113.9736 92° East 481 554 41,000  Level Los Angeles Center
Thu 01:32:03 PM 34.7492 -113.8183 92° East 481 554 41,000  Level Albuquerque Center
Thu 01:33:05 PM 34.7703 -113.6581 81° East 485 558 41,000  Level Albuquerque Center
Thu 01:34:07 PM 34.7950 -113.4983 79° East 485 558 41,000  Level Albuquerque Center
Thu 01:35:09 PM 34.8236 -113.3067 80° East 486 559 41,000  Level Albuquerque Center
Thu 01:36:11 PM 34.8486 -113.1461 79° East 488 562 41,000  Level Albuquerque Center
Thu 01:37:13 PM 34.8733 -112.9853 79° East 489 563 41,000  Level Albuquerque Center
Thu 01:38:15 PM 34.8981 -112.8261 79° East 488 562 41,000  Level Albuquerque Center
Thu 01:39:17 PM 34.9208 -112.6644 80° East 489 563 41,000  Level Albuquerque Center
Thu 01:40:19 PM 34.9497 -112.4725 80° East 488 562 41,000  Level Albuquerque Center
Thu 01:41:21 PM 34.9731 -112.3111 80° East 489 563 41,000  Level Albuquerque Center
Thu 01:42:23 PM 34.9964 -112.1511 80° East 486 559 41,000  Level Albuquerque Center
Thu 01:43:26 PM 35.0194 -111.9900 80° East 486 559 41,000  Level Albuquerque Center
Thu 01:44:28 PM 35.0467 -111.7972 80° East 486 559 41,000  Level Albuquerque Center
Thu 01:45:30 PM 35.0672 -111.6533 80° East 485 558 41,000  Level Albuquerque Center
Thu 01:46:32 PM 35.0903 -111.4894 80° East 488 562 41,000  Level Albuquerque Center
Thu 01:47:34 PM 35.1167 -111.2936 81° East 487 560 41,000  Level Albuquerque Center
Thu 01:48:36 PM 35.1378 -111.1303 81° East 487 560 41,000  Level Albuquerque Center
Thu 01:49:38 PM 35.1606 -110.9611 81° East 487 560 41,000  Level Albuquerque Center
Thu 01:50:40 PM 35.1828 -110.8058 80° East 486 559 41,000  Level Albuquerque Center
Thu 01:51:42 PM 35.2056 -110.6228 81° East 487 560 41,000  Level Albuquerque Center
Thu 01:52:44 PM 35.2261 -110.4672 81° East 486 559 41,000  Level Albuquerque Center
Thu 01:53:46 PM 35.2508 -110.2844 81° East 488 562 41,000  Level Albuquerque Center
Thu 01:54:48 PM 35.2706 -110.1278 81° East 488 562 41,000  Level Albuquerque Center
Thu 01:55:50 PM 35.2936 -109.9456 81° East 486 559 41,000  Level Albuquerque Center
Thu 01:56:52 PM 35.3133 -109.7878 81° East 489 563 41,000  Level Albuquerque Center
Thu 01:57:54 PM 35.3361 -109.6039 81° East 491 565 41,000  Level Albuquerque Center
Thu 01:58:56 PM 35.3553 -109.4461 81° East 490 564 41,000  Level Albuquerque Center
Thu 01:59:58 PM 35.3772 -109.2631 82° East 489 563 41,000  Level Albuquerque Center
Thu 02:01:00 PM 35.3967 -109.1050 81° East 492 566 41,000  Level Albuquerque Center
Thu 02:02:02 PM 35.4189 -108.9208 82° East 492 566 41,000  Level Albuquerque Center
Thu 02:03:04 PM 35.4364 -108.7633 82° East 491 565 41,000  Level Albuquerque Center
Thu 02:04:06 PM 35.4578 -108.5794 82° East 491 565 41,000  Level Albuquerque Center
Thu 02:05:08 PM 35.4761 -108.4231 82° East 489 563 41,000  Level Albuquerque Center
Thu 02:06:10 PM 35.4967 -108.2403 82° East 487 560 41,000  Level Albuquerque Center
Thu 02:07:12 PM 35.5144 -108.0836 82° East 487 560 41,000  Level Albuquerque Center
Thu 02:08:13 PM 35.5333 -107.9011 83° East 485 558 41,000  Level Albuquerque Center
Thu 02:09:15 PM 35.5497 -107.7447 83° East 483 556 41,000  Level Albuquerque Center
Thu 02:10:17 PM 35.5656 -107.5878 83° East 484 557 41,000  Level Albuquerque Center
Thu 02:11:19 PM 35.5847 -107.4047 83° East 485 558 41,000  Level Albuquerque Center
Thu 02:12:21 PM 35.6014 -107.2478 83° East 485 558 41,000  Level Albuquerque Center
Thu 02:13:23 PM 35.6208 -107.0611 83° East 487 560 41,000  Level Albuquerque Center
Thu 02:14:25 PM 35.6383 -106.8936 83° East 489 563 41,000  Level Albuquerque Center
Thu 02:15:27 PM 35.6553 -106.7194 83° East 489 563 41,000  Level Albuquerque Center
Thu 02:16:28 PM 35.6700 -106.5619 83° East 487 560 41,000  Level Albuquerque Center
Thu 02:17:30 PM 35.6881 -106.3778 83° East 486 559 41,000  Level Albuquerque Center
Thu 02:18:32 PM 35.7031 -106.2200 83° East 485 558 41,000  Level Albuquerque Center
Thu 02:19:34 PM 35.7178 -106.0617 83° East 492 566 41,000  Level Albuquerque Center
Thu 02:20:36 PM 35.7317 -105.8961 84° East 488 562 41,000  Level Albuquerque Center
Thu 02:21:38 PM 35.7511 -105.6972 83° East 488 562 41,000  Level Albuquerque Center
Thu 02:22:40 PM 35.7653 -105.5369 84° East 490 564 41,000  Level Albuquerque Center
Thu 02:23:41 PM 35.7781 -105.3689 85° East 489 563 41,000  Level Albuquerque Center
Thu 02:24:43 PM 35.7919 -105.1997 84° East 490 564 41,000  Level Albuquerque Center
Thu 02:25:45 PM 35.8039 -105.0322 85° East 487 560 41,000  Level Albuquerque Center
Thu 02:26:47 PM 35.8219 -104.8342 84° East 491 565 41,000  Level Albuquerque Center
Thu 02:27:49 PM 35.8364 -104.6656 84° East 489 563 41,000  Level Albuquerque Center
Thu 02:28:51 PM 35.8494 -104.4969 84° East 488 562 41,000  Level Albuquerque Center
Thu 02:29:52 PM 35.8619 -104.3275 85° East 490 564 41,000  Level Albuquerque Center
Thu 02:30:54 PM 35.8756 -104.1586 84° East 489 563 41,000  Level Albuquerque Center
Thu 02:31:56 PM 35.8883 -103.9900 85° East 489 563 41,000  Level Albuquerque Center
Thu 02:32:58 PM 35.9011 -103.8211 85° East 489 563 41,000  Level Albuquerque Center
Thu 02:34:00 PM 35.9133 -103.6517 85° East 488 562 41,000  Level Albuquerque Center
Thu 02:35:01 PM 35.9253 -103.4842 85° East 486 559 41,000  Level Albuquerque Center
Thu 02:36:03 PM 35.9369 -103.3164 85° East 485 558 41,000  Level Albuquerque Center
Thu 02:37:05 PM 35.9492 -103.1206 86° East 486 559 41,000  Level Albuquerque Center
Thu 02:38:07 PM 35.9606 -102.9522 85° East 487 560 41,000  Level Albuquerque Center
Thu 02:39:09 PM 35.9719 -102.7903 85° East 487 560 41,000  Level Albuquerque Center
Thu 02:40:11 PM 35.9825 -102.6222 86° East 490 564 41,000  Level Albuquerque Center
Thu 02:41:12 PM 35.9931 -102.4542 86° East 491 565 41,000  Level Albuquerque Center
Thu 02:42:14 PM 36.0036 -102.2875 85° East 487 560 41,000  Level Albuquerque Center
Thu 02:43:16 PM 36.0133 -102.1178 86° East 492 566 41,000  Level Albuquerque Center
Thu 02:44:18 PM 36.0250 -101.9161 86° East 490 564 41,000  Level Albuquerque Center
Thu 02:45:20 PM 36.0342 -101.7469 86° East 491 565 41,000  Level Albuquerque Center
Thu 02:46:21 PM 36.0442 -101.5772 86° East 492 566 41,000  Level Albuquerque Center
Thu 02:47:23 PM 36.0531 -101.4103 86° East 488 562 41,000  Level Albuquerque Center
Thu 02:48:25 PM 36.0600 -101.2583 87° East 487 560 41,000  Level Albuquerque Center
Thu 02:49:27 PM 36.0700 -101.0572 86° East 487 560 41,000  Level Albuquerque Center
Thu 02:50:28 PM 36.0792 -100.8897 86° East 488 562 41,000  Level Albuquerque Center
Thu 02:51:30 PM 36.0867 -100.7217 87° East 488 562 41,000  Level Albuquerque Center
Thu 02:52:32 PM 36.0942 -100.5556 87° East 485 558 41,000  Level Albuquerque Center
Thu 02:53:34 PM 36.1028 -100.3872 86° East 488 562 41,000  Level Albuquerque Center
Thu 02:54:36 PM 36.1108 -100.2175 87° East 492 566 41,000  Level Albuquerque Center
Thu 02:55:15 PM 36.1153 -100.1178 87° East 489 563 41,000  Level Kansas City Center
Thu 02:56:17 PM 36.1228 -99.9139 87° East 492 566 41,000  Level Kansas City Center
Thu 02:57:19 PM 36.1297 -99.7431 87° East 494 568 41,000  Level Kansas City Center
Thu 02:58:21 PM 36.1347 -99.5728 88° East 494 568 41,000  Level Kansas City Center
Thu 02:59:23 PM 36.1422 -99.4014 87° East 494 568 41,000  Level Kansas City Center
Thu 03:00:25 PM 36.1483 -99.2369 87° East 495 570 41,000  Level Kansas City Center
Thu 03:01:27 PM 36.1533 -99.0672 88° East 497 572 41,000  Level Kansas City Center
Thu 03:02:29 PM 36.1600 -98.8633 88° East 493 567 41,000  Level Kansas City Center
Thu 03:03:31 PM 36.1650 -98.7078 88° East 494 568 41,000  Level Kansas City Center
Thu 03:04:33 PM 36.1697 -98.5350 88° East 497 572 41,000  Level Kansas City Center
Thu 03:05:35 PM 36.1753 -98.3636 88° East 498 573 41,000  Level Kansas City Center
Thu 03:06:37 PM 36.1803 -98.1572 88° East 498 573 41,000  Level Kansas City Center
Thu 03:07:39 PM 36.1842 -98.0089 88° East 496 571 41,000  Level Kansas City Center
Thu 03:08:41 PM 36.1886 -97.8378 88° East 497 572 41,000  Level Kansas City Center
Thu 03:09:43 PM 36.1925 -97.6317 89° East 499 574 41,000  Level Kansas City Center
Thu 03:10:45 PM 36.1958 -97.4608 89° East 496 571 41,000  Level Kansas City Center
Thu 03:11:47 PM 36.1994 -97.2867 88° East 502 578 41,000  Level Kansas City Center
Thu 03:12:49 PM 36.2022 -97.1122 89° East 504 580 41,000  Level Kansas City Center
Thu 03:13:51 PM 36.2050 -96.9372 89° East 506 582 41,000  Level Kansas City Center
Thu 03:14:53 PM 36.2078 -96.7625 89° East 507 583 41,000  Level Kansas City Center
Thu 03:15:55 PM 36.2100 -96.5728 89° East 509 586 41,000  Level Kansas City Center
Thu 03:16:57 PM 36.2119 -96.3969 89° East 511 588 41,000  Level Kansas City Center
Thu 03:17:59 PM 36.2136 -96.2217 89° East 511 588 41,000  Level Kansas City Center
Thu 03:19:01 PM 36.2156 -96.0117 89° East 509 586 41,000  Level Kansas City Center
Thu 03:20:03 PM 36.2167 -95.8386 89° East 507 583 41,000  Level Kansas City Center
Thu 03:21:05 PM 36.2181 -95.6761 89° East 506 582 41,000  Level Kansas City Center
Thu 03:22:07 PM 36.2189 -95.5014 90° East 508 585 41,000  Level Kansas City Center
Thu 03:23:09 PM 36.2203 -95.2908 89° East 510 587 41,000  Level Kansas City Center
Thu 03:24:11 PM 36.2200 -95.1139 90° East 513 590 41,000  Level Kansas City Center
Thu 03:25:13 PM 36.2189 -94.9333 90° East 518 596 41,000  Level Kansas City Center
Thu 03:26:15 PM 36.2186 -94.7569 90° East 516 594 41,000 242 Level Kansas City Center
Thu 03:27:17 PM 36.2178 -94.5831 90° East 509 586 41,500 944 Climbing Kansas City Center
Thu 03:27:44 PM 36.2153 -94.4883 92° East 507 583 42,400 1,448 Climbing Memphis Center
Thu 03:28:44 PM 36.2144 -94.3183 90° East 494 568 43,600 1,000 Climbing Memphis Center
Thu 03:29:44 PM 36.2133 -94.1589 90° East 482 555 44,400 700 Climbing Memphis Center
Thu 03:30:44 PM 36.2119 -93.9969 91° East 475 547 45,000 300 Climbing Memphis Center
Thu 03:31:44 PM 36.2081 -93.8347 92° East 469 540 45,000  Level Memphis Center
Thu 03:32:44 PM 36.2106 -93.6700 89° East 474 545 45,000  Level Memphis Center
Thu 03:33:44 PM 36.2086 -93.5028 91° East 480 552 45,000  Level Memphis Center
Thu 03:34:44 PM 36.2067 -93.3331 91° East 485 558 45,000  Level Memphis Center
Thu 03:35:44 PM 36.2019 -93.1708 92° East 480 552 45,000  Level Memphis Center
Thu 03:36:44 PM 36.2014 -93.0036 90° East 475 547 45,000  Level Memphis Center
Thu 03:37:44 PM 36.1986 -92.8364 91° East 480 552 45,000  Level Memphis Center
Thu 03:38:44 PM 36.1933 -92.6742 92° East 475 547 45,000  Level Memphis Center
Thu 03:39:44 PM 36.1922 -92.5094 90° East 475 547 45,000  Level Memphis Center
Thu 03:40:44 PM 36.1886 -92.3447 92° East 475 547 45,000  Level Memphis Center
Thu 03:41:44 PM 36.1850 -92.1803 92° East 475 547 45,000  Level Memphis Center
Thu 03:42:44 PM 36.1786 -92.0361 93° East 475 547 45,000  Level Memphis Center
Thu 03:43:44 PM 36.1703 -91.8689 93° East 475 547 45,000  Level Memphis Center
Thu 03:44:44 PM 36.1661 -91.7017 92° East 481 554 45,000  Level Memphis Center
Thu 03:45:44 PM 36.1656 -91.5319 90° East 486 559 45,000  Level Memphis Center
Thu 03:46:44 PM 36.1589 -91.3492 93° East 486 559 45,000  Level Memphis Center
Thu 03:47:44 PM 36.1517 -91.1769 93° East 491 565 45,000  Level Memphis Center
Thu 03:48:44 PM 36.1486 -91.0072 91° East 496 571 45,000  Level Memphis Center
Thu 03:49:44 PM 36.1411 -90.8325 93° East 496 571 45,000  Level Memphis Center
Thu 03:50:44 PM 36.1353 -90.6603 92° East 496 571 45,000  Level Memphis Center
Thu 03:51:44 PM 36.1294 -90.4856 92° East 496 571 45,000  Level Memphis Center
Thu 03:52:44 PM 36.1211 -90.3108 93° East 496 571 45,000  Level Memphis Center
Thu 03:53:44 PM 36.1147 -90.1386 93° East 496 571 45,000  Level Memphis Center
Thu 03:54:44 PM 36.1081 -89.9717 93° East 496 571 45,000  Level Memphis Center
Thu 03:55:44 PM 36.0989 -89.8022 94° East 496 571 45,000  Level Memphis Center
Thu 03:56:44 PM 36.0919 -89.6353 93° East 496 571 45,000  Level Memphis Center
Thu 03:57:44 PM 36.0867 -89.4786 92° East 501 577 45,000  Level Memphis Center
Thu 03:58:45 PM 36.0769 -89.3092 94° East 496 571 45,000  Level Memphis Center
Thu 03:59:44 PM 36.0692 -89.1347 93° East 496 571 45,000  Level Memphis Center
Thu 04:00:44 PM 36.0611 -88.9628 93° East 496 571 45,000  Level Memphis Center
Thu 04:01:44 PM 36.0528 -88.7933 93° East 496 571 45,000  Level Memphis Center
Thu 04:02:44 PM 36.0442 -88.6267 94° East 496 571 45,000  Level Memphis Center
Thu 04:03:44 PM 36.0378 -88.4575 93° East 496 571 45,000  Level Memphis Center
Thu 04:04:44 PM 36.0286 -88.2908 94° East 496 571 45,000  Level Memphis Center
Thu 04:05:44 PM 36.0194 -88.1142 94° East 491 565 45,000  Level Memphis Center
Thu 04:06:44 PM 36.0100 -87.9450 94° East 484 557 45,000  Level Memphis Center
Thu 04:07:44 PM 35.9983 -87.7786 95° East 484 557 45,000  Level Memphis Center
Thu 04:08:44 PM 35.9864 -87.6094 95° East 484 557 45,000  Level Memphis Center
Thu 04:09:44 PM 35.9761 -87.4406 94° East 489 563 45,000  Level Memphis Center
Thu 04:10:44 PM 35.9639 -87.2719 95° East 494 568 45,000  Level Memphis Center
Thu 04:11:44 PM 35.9511 -87.1031 95° East 494 568 45,000  Level Memphis Center
Thu 04:12:44 PM 35.9403 -86.9369 95° East 494 568 45,000  Level Memphis Center
Thu 04:13:44 PM 35.9294 -86.7681 94° East 494 568 45,000  Level Memphis Center
Thu 04:14:44 PM 35.9161 -86.5994 96° East 494 568 45,000  Level Memphis Center
Thu 04:15:44 PM 35.9044 -86.4283 95° East 494 568 45,000  Level Memphis Center
Thu 04:17:46 PM 35.8806 -86.0889 95° East 501 577 45,000  Level Atlanta Center
Thu 04:18:46 PM 35.8875 -85.9225 87° East 496 571 45,000  Level Atlanta Center
Thu 04:19:46 PM 35.9189 -85.7644 76° East 482 555 45,000  Level Atlanta Center
Thu 04:20:46 PM 35.9525 -85.6008 76° East 482 555 45,000  Level Atlanta Center
Thu 04:21:46 PM 35.9878 -85.4375 75° East 487 560 45,000  Level Atlanta Center
Thu 04:22:46 PM 36.0186 -85.2786 76° East 487 560 45,000  Level Atlanta Center
Thu 04:23:46 PM 36.0536 -85.1122 75° East 487 560 45,000  Level Atlanta Center
Thu 04:24:46 PM 36.0861 -84.9483 76° East 487 560 45,000  Level Atlanta Center
Thu 04:25:46 PM 36.1144 -84.7994 77° East 487 560 45,000  Level Atlanta Center
Thu 04:26:46 PM 36.1467 -84.6328 76° East 487 560 45,000  Level Atlanta Center
Thu 04:27:46 PM 36.1764 -84.4683 77° East 487 560 45,000  Level Atlanta Center
Thu 04:28:46 PM 36.2081 -84.3089 76° East 487 560 45,000  Level Atlanta Center
Thu 04:29:46 PM 36.2375 -84.1469 77° East 487 560 45,000  Level Atlanta Center
Thu 04:30:46 PM 36.2669 -83.9872 77° East 482 555 45,000  Level Atlanta Center
Thu 04:31:46 PM 36.2958 -83.8275 77° East 475 547 45,000  Level Atlanta Center
Thu 04:32:46 PM 36.3247 -83.6728 77° East 470 541 45,000 -700 Level Atlanta Center
Thu 04:33:46 PM 36.3533 -83.5103 78° East 470 541 43,600 -1,500 Descending Atlanta Center
Thu 04:34:46 PM 36.3817 -83.3503 78° East 475 547 42,000 -1,550 Descending Atlanta Center
Thu 04:35:46 PM 36.4119 -83.1847 77° East 480 552 40,500 -1,500 Descending Atlanta Center
Thu 04:36:46 PM 36.4419 -83.0167 77° East 485 558 39,000 -1,500 Descending Atlanta Center
Thu 04:37:46 PM 36.4675 -82.8589 79° East 480 552 37,500 -1,450 Descending Atlanta Center
Thu 04:38:46 PM 36.4972 -82.7036 77° East 466 536 36,100 -750 Descending Atlanta Center
Thu 04:39:46 PM 36.5247 -82.5403 78° East 474 545 36,000 -500 Descending Atlanta Center
Thu 04:40:46 PM 36.5578 -82.3614 77° East 480 552 35,100 -700 Descending Atlanta Center
Thu 04:41:46 PM 36.5867 -82.2006 77° East 469 540 34,600 -1,000 Descending Atlanta Center
Thu 04:42:46 PM 36.6133 -82.0369 78° East 469 540 33,100 -800 Descending Atlanta Center
Thu 04:43:46 PM 36.6419 -81.8733 78° East 469 540 33,000 -600 Descending Atlanta Center
Thu 04:44:46 PM 36.6706 -81.7300 76° East 469 540 31,900 -1,200 Descending Atlanta Center
Thu 04:45:46 PM 36.7092 -81.5711 73° East 474 545 30,600 -1,300 Descending Atlanta Center
Thu 04:47:00 PM 36.7522 -81.3805 74° East  Level FlightAware Approximate
Thu 04:47:46 PM 36.7831 -81.2319 74° East 474 545 28,000  Level Atlanta Center
Thu 04:48:46 PM 36.8211 -81.0672 74° East 474 545 28,000  Level Atlanta Center
Thu 04:49:46 PM 36.8567 -80.9075 74° East 480 552 28,000 -874 Level Atlanta Center
Thu 04:51:17 PM 36.9144 -80.6656 73° East 482 555 25,800 -1,192 Descending Washington Center
Thu 04:52:17 PM 36.9500 -80.5144 74° East 462 532 25,000 -400 Descending Washington Center
Thu 04:53:17 PM 36.9783 -80.3811 75° East 448 516 25,000 -496 Level Washington Center
Thu 04:54:18 PM 37.0094 -80.2269 76° East 448 516 24,000 -1,240 Descending Washington Center
Thu 04:55:18 PM 37.0403 -80.0753 76° East 448 516 22,500 -1,513 Descending Washington Center
Thu 04:56:17 PM 36.9961 -79.9114 109° East 445 512 21,000 -750 Descending Washington Center
Thu 04:57:18 PM 36.9469 -79.7708 114° Southeast 440 506 21,000  Level Washington Center
Thu 04:58:19 PM 36.8953 -79.6306 115° Southeast 440 506 21,000  Level Washington Center
Thu 04:59:17 PM 36.8517 -79.5036 113° Southeast 440 506 21,000  Level Washington Center
Thu 05:00:17 PM 36.8019 -79.3636 114° Southeast 440 506 21,000 -295 Level Washington Center
Thu 05:01:19 PM 36.7478 -79.2236 116° Southeast 440 506 20,400 -1,563 Descending Washington Center
Thu 05:02:16 PM 36.7017 -79.0867 113° Southeast 445 512 17,900 -2,441 Descending Washington Center
Thu 05:03:17 PM 36.6144 -79.0025 142° Southeast 393 452 15,600 -3,917 Descending Washington Center
Thu 05:04:17 PM 36.5153 -78.9722 166° South 357 411 10,000 -1,884 Descending Washington Center
Thu 05:05:18 PM 36.4242 -78.9478 168° South 343 395 11,800 246 Climbing Washington Center
Thu 05:06:19 PM 36.3586 -78.8986 149° Southeast 320 368 10,500 -1,388 Descending Washington Center
Thu 05:07:19 PM 36.2875 -78.8361 145° Southeast 299 344 9,000 -1,400 Descending Washington Center
Thu 05:08:19 PM 36.2344 -78.7878 144° Southeast 278 320 7,700 -1,424 Descending Washington Center
Thu 05:09:17 PM 36.1731 -78.7389 147° Southeast 264 304 6,200 -864 Descending Washington Center
Thu 05:10:17 PM 36.1181 -78.6956 148° Southeast 249 287 6,000 -893 Descending Washington Center
Thu 05:11:18 PM 36.0494 -78.6853 173° South 244 281 4,400 -1,587 Descending Washington Center
Thu 05:12:18 PM 35.9822 -78.7006 190° South 239 275 2,800 -1,228 Descending Washington Center
Thu 05:13:25 PM 35.9125 -78.7361 202° Southwest 197 227 1,800 -984 Descending Washington Center
Thu 05:14:26 PM 35.8842 -78.7736 227° Southwest 118 136 700 -1,082 Descending Washington Center
Thu 05:16:00 PM 35.8776 -78.7875 90° East  Level Estimated

Login

Don't have an account? Register now (free) for customized features, flight alerts, and more!